createdAt,value
2022-10-09T00:00:18.098Z,8.00
2022-10-09T00:02:49.590Z,8.90
2022-10-09T00:05:19.626Z,7.85
2022-10-09T00:07:51.844Z,7.82
2022-10-09T00:10:22.595Z,7.68
2022-10-09T00:12:54.633Z,7.28
2022-10-09T00:15:24.510Z,7.85
2022-10-09T00:17:57.568Z,8.07
2022-10-09T00:20:26.186Z,9.93
2022-10-09T00:23:01.358Z,9.50
2022-10-09T00:25:33.883Z,10.27
2022-10-09T00:28:11.306Z,8.70
2022-10-09T00:30:40.743Z,9.25
2022-10-09T00:33:13.972Z,8.38
2022-10-09T00:35:44.193Z,8.90
2022-10-09T00:38:15.618Z,9.38
2022-10-09T00:40:44.604Z,8.63
2022-10-09T00:43:18.606Z,9.35
2022-10-09T00:45:56.827Z,8.95
2022-10-09T00:48:28.134Z,9.35
2022-10-09T00:50:59.843Z,8.73
2022-10-09T00:53:31.327Z,9.40
2022-10-09T00:56:00.946Z,9.47
2022-10-09T00:58:31.376Z,8.48
2022-10-09T01:01:01.608Z,10.25
2022-10-09T01:03:32.462Z,9.02
2022-10-09T01:06:20.345Z,8.85
2022-10-09T01:08:57.414Z,9.32
2022-10-09T01:11:40.135Z,9.60
2022-10-09T01:14:17.411Z,9.38
2022-10-09T01:17:16.556Z,10.02
2022-10-09T01:20:04.515Z,9.80
2022-10-09T01:22:43.815Z,10.77
2022-10-09T01:25:32.739Z,9.48
2022-10-09T01:28:04.165Z,9.52
2022-10-09T01:30:35.835Z,9.15
2022-10-09T01:33:06.815Z,8.32
2022-10-09T01:35:39.480Z,10.20
2022-10-09T01:38:09.134Z,10.60
2022-10-09T01:40:40.448Z,10.80
2022-10-09T01:43:10.573Z,10.40
2022-10-09T01:45:44.062Z,11.10
2022-10-09T01:48:24.471Z,13.30
2022-10-09T01:50:58.998Z,12.48
2022-10-09T01:53:32.825Z,12.73
2022-10-09T01:56:14.768Z,12.73
2022-10-09T01:58:53.096Z,13.95
2022-10-09T02:01:24.938Z,14.43
2022-10-09T02:03:55.337Z,14.30
2022-10-09T02:06:27.590Z,13.85
2022-10-09T02:08:56.578Z,13.80
2022-10-09T02:11:34.988Z,13.35
2022-10-09T02:14:03.583Z,14.38
2022-10-09T02:16:42.388Z,13.55
2022-10-09T02:19:36.286Z,14.98
2022-10-09T02:22:15.685Z,15.55
2022-10-09T02:24:44.294Z,15.48
2022-10-09T02:27:12.747Z,15.65
2022-10-09T02:29:42.103Z,16.00
2022-10-09T02:32:10.364Z,16.55
2022-10-09T02:34:38.775Z,17.98
2022-10-09T02:37:07.237Z,17.35
2022-10-09T02:39:37.001Z,17.87
2022-10-09T02:42:06.608Z,19.90
2022-10-09T02:44:34.413Z,19.37
2022-10-09T02:47:03.823Z,19.87
2022-10-09T02:49:31.813Z,21.70
2022-10-09T02:51:59.683Z,20.60
2022-10-09T02:54:33.126Z,21.70
2022-10-09T02:57:01.064Z,21.00
2022-10-09T02:59:29.298Z,20.85
2022-10-09T03:01:58.765Z,22.13
2022-10-09T03:04:26.821Z,22.13
2022-10-09T03:06:57.027Z,22.05
2022-10-09T03:09:29.155Z,22.35
2022-10-09T03:11:59.944Z,24.02
2022-10-09T03:14:28.369Z,24.00
2022-10-09T03:16:56.266Z,24.15
2022-10-09T03:19:24.079Z,23.60
2022-10-09T03:21:52.779Z,23.65
2022-10-09T03:24:20.723Z,24.73
2022-10-09T03:26:48.704Z,24.67
2022-10-09T03:29:18.859Z,24.08
2022-10-09T03:31:52.209Z,24.20
2022-10-09T03:34:22.233Z,23.62
2022-10-09T03:36:50.433Z,24.17
2022-10-09T03:39:19.171Z,22.35
2022-10-09T03:41:48.134Z,23.98
2022-10-09T03:44:17.661Z,22.23
2022-10-09T03:46:52.857Z,22.75
2022-10-09T03:49:22.122Z,24.30
2022-10-09T03:51:51.786Z,24.00
2022-10-09T03:54:20.287Z,22.42
2022-10-09T03:56:48.104Z,21.92
2022-10-09T03:59:17.120Z,24.95
2022-10-09T04:01:45.669Z,25.25
2022-10-09T04:04:14.378Z,22.98
2022-10-09T04:06:43.340Z,23.65
2022-10-09T04:09:11.485Z,24.12
2022-10-09T04:11:39.498Z,23.83
2022-10-09T04:14:07.768Z,24.30
2022-10-09T04:16:35.789Z,23.10
2022-10-09T04:19:06.117Z,23.63
2022-10-09T04:21:35.893Z,22.87
2022-10-09T04:24:08.551Z,22.50
2022-10-09T04:29:05.024Z,20.67
2022-10-09T04:31:34.768Z,21.75
2022-10-09T04:34:03.110Z,22.37
2022-10-09T04:36:32.313Z,23.87
2022-10-09T04:38:59.801Z,23.67
2022-10-09T04:41:29.216Z,23.60
2022-10-09T04:43:58.736Z,23.12
2022-10-09T04:46:27.002Z,24.02
2022-10-09T04:48:54.614Z,25.30
2022-10-09T04:51:22.379Z,24.63
2022-10-09T04:53:50.019Z,24.80
2022-10-09T04:56:20.025Z,23.67
2022-10-09T04:58:50.072Z,24.17
2022-10-09T05:01:23.654Z,23.80
2022-10-09T05:03:53.994Z,23.67
2022-10-09T05:06:23.611Z,23.55
2022-10-09T05:08:52.388Z,21.62
2022-10-09T05:11:25.383Z,24.05
2022-10-09T05:13:55.495Z,23.67
2022-10-09T05:16:28.865Z,23.12
2022-10-09T05:18:58.663Z,23.02
2022-10-09T05:21:27.617Z,22.20
2022-10-09T05:23:56.591Z,25.27
2022-10-09T05:26:25.616Z,25.35
2022-10-09T05:28:54.636Z,22.92
2022-10-09T05:31:28.433Z,24.60
2022-10-09T05:34:00.177Z,23.70
2022-10-09T05:36:28.591Z,23.35
2022-10-09T05:38:57.908Z,22.87
2022-10-09T05:41:26.052Z,22.83
2022-10-09T05:43:55.033Z,23.58
2022-10-09T05:46:24.773Z,23.20
2022-10-09T05:49:05.599Z,23.15
2022-10-09T05:51:36.583Z,22.35
2022-10-09T05:54:06.768Z,21.62
2022-10-09T05:56:38.008Z,21.70
2022-10-09T05:59:07.788Z,19.77
2022-10-09T06:01:42.734Z,20.65
2022-10-09T06:04:17.265Z,19.98
2022-10-09T06:06:48.722Z,18.42
2022-10-09T06:11:51.079Z,16.80
2022-10-09T06:14:22.284Z,17.42
2022-10-09T06:16:51.222Z,18.45
2022-10-09T06:19:23.069Z,19.25
2022-10-09T06:21:51.991Z,19.62
2022-10-09T06:26:57.723Z,19.73
2022-10-09T06:29:27.488Z,20.15
2022-10-09T06:31:55.996Z,20.98
2022-10-09T06:34:23.981Z,19.95
2022-10-09T06:36:52.522Z,18.55
2022-10-09T06:39:21.176Z,19.12
2022-10-09T06:41:49.209Z,17.77
2022-10-09T06:44:24.290Z,18.15
2022-10-09T06:46:52.129Z,18.48
2022-10-09T06:49:24.285Z,17.67
2022-10-09T06:51:52.346Z,16.90
2022-10-09T06:54:20.545Z,16.52
2022-10-09T06:56:48.506Z,16.12
2022-10-09T06:59:18.304Z,17.20
2022-10-09T07:01:47.878Z,15.20
2022-10-09T07:04:18.235Z,16.17
2022-10-09T07:06:48.295Z,14.13
2022-10-09T07:09:16.890Z,12.20
2022-10-09T07:11:49.263Z,14.02
2022-10-09T07:14:18.145Z,13.30
2022-10-09T07:16:48.720Z,12.10
2022-10-09T07:19:17.806Z,9.45
2022-10-09T07:21:48.807Z,9.48
2022-10-09T07:24:18.255Z,8.57
2022-10-09T07:26:47.610Z,10.88
2022-10-09T07:29:17.159Z,11.25
2022-10-09T07:31:45.727Z,10.70
2022-10-09T07:34:16.061Z,12.48
2022-10-09T07:36:44.340Z,11.55
2022-10-09T07:39:12.218Z,10.30
2022-10-09T07:41:41.124Z,10.55
2022-10-09T07:44:13.574Z,11.00
2022-10-09T07:46:41.880Z,10.52
2022-10-09T07:49:10.608Z,11.57
2022-10-09T07:51:38.593Z,12.30
2022-10-09T07:54:09.288Z,11.30
2022-10-09T07:56:38.988Z,9.90
2022-10-09T07:59:11.087Z,10.18
2022-10-09T08:01:41.040Z,9.82
2022-10-09T08:04:09.854Z,9.98
2022-10-09T08:06:38.595Z,10.10
2022-10-09T08:09:07.907Z,9.45
2022-10-09T08:11:40.844Z,8.95
2022-10-09T08:14:18.079Z,8.45
2022-10-09T08:16:49.562Z,8.82
2022-10-09T08:19:17.735Z,8.23
2022-10-09T08:21:45.588Z,8.85
2022-10-09T08:24:14.528Z,8.32
2022-10-09T08:26:44.394Z,8.95
2022-10-09T08:29:13.980Z,7.65
2022-10-09T08:31:42.652Z,7.93
2022-10-09T08:34:12.148Z,6.30
2022-10-09T08:36:40.217Z,6.78
2022-10-09T08:39:10.414Z,6.60
2022-10-09T08:41:54.886Z,5.95
2022-10-09T08:44:39.625Z,6.62
2022-10-09T08:47:37.516Z,5.95
2022-10-09T08:50:10.492Z,6.78
2022-10-09T08:52:57.555Z,5.80
2022-10-09T08:55:31.846Z,5.87
2022-10-09T08:58:04.743Z,5.62
2022-10-09T09:00:47.023Z,5.90
2022-10-09T09:03:34.165Z,5.43
2022-10-09T09:06:24.421Z,4.95
2022-10-09T09:09:02.083Z,5.72
2022-10-09T09:11:59.778Z,5.60
2022-10-09T09:14:58.277Z,5.05
2022-10-09T09:17:35.774Z,5.15
2022-10-09T09:20:11.379Z,4.37
2022-10-09T09:22:46.926Z,5.00
2022-10-09T09:25:21.950Z,5.10
2022-10-09T09:27:58.537Z,5.00
2022-10-09T09:30:36.028Z,4.57
2022-10-09T09:33:26.475Z,5.03
2022-10-09T09:36:09.428Z,5.07
2022-10-09T09:38:54.181Z,4.82
2022-10-09T09:41:26.310Z,5.15
2022-10-09T09:43:57.016Z,5.18
2022-10-09T09:46:29.575Z,4.25
2022-10-09T09:48:59.848Z,4.07
2022-10-09T09:51:32.126Z,3.92
2022-10-09T09:54:07.527Z,3.95
2022-10-09T09:57:07.058Z,4.20
2022-10-09T09:59:36.363Z,4.40
2022-10-09T10:02:11.790Z,4.35
2022-10-09T10:04:52.677Z,4.70
2022-10-09T10:07:35.614Z,4.80
2022-10-09T10:10:19.758Z,4.60
2022-10-09T10:12:55.360Z,4.87
2022-10-09T10:15:28.679Z,4.85
2022-10-09T10:18:00.437Z,4.90
2022-10-09T10:20:32.189Z,5.03
2022-10-09T10:23:00.437Z,5.50
2022-10-09T10:25:32.538Z,5.47
2022-10-09T10:28:15.670Z,5.07
2022-10-09T10:30:44.546Z,4.28
2022-10-09T10:33:23.097Z,4.47
2022-10-09T10:35:53.404Z,4.75
2022-10-09T10:38:38.951Z,5.12
2022-10-09T10:41:37.366Z,4.50
2022-10-09T10:44:23.552Z,4.62
2022-10-09T10:46:55.359Z,4.70
2022-10-09T10:49:23.570Z,4.80
2022-10-09T10:52:14.836Z,4.80
2022-10-09T10:55:08.818Z,4.60
2022-10-09T10:57:56.590Z,4.57
2022-10-09T11:00:26.543Z,4.35
2022-10-09T11:03:04.097Z,4.28
2022-10-09T11:06:07.525Z,4.85
2022-10-09T11:08:53.112Z,4.35
2022-10-09T11:11:33.717Z,4.55
2022-10-09T11:14:08.083Z,4.75
2022-10-09T11:16:44.446Z,4.72
2022-10-09T11:19:25.885Z,4.45
2022-10-09T11:22:00.651Z,4.10
2022-10-09T11:24:40.822Z,4.60
2022-10-09T11:27:19.454Z,3.90
2022-10-09T11:29:59.430Z,3.12
2022-10-09T11:35:12.483Z,3.53
2022-10-09T11:37:42.431Z,3.47
2022-10-09T11:40:20.556Z,3.60
2022-10-09T11:43:02.303Z,3.92
2022-10-09T11:45:50.324Z,3.50
2022-10-09T11:48:45.586Z,3.58
2022-10-09T11:51:23.215Z,4.15
2022-10-09T11:53:52.658Z,3.85
2022-10-09T11:56:27.073Z,3.78
2022-10-09T11:59:06.698Z,3.70
2022-10-09T12:01:37.689Z,4.07
2022-10-09T12:04:32.338Z,3.28
2022-10-09T12:07:12.677Z,3.72
2022-10-09T12:09:45.491Z,3.60
2022-10-09T12:12:16.468Z,3.45
2022-10-09T12:14:47.707Z,3.45
2022-10-09T12:17:35.898Z,3.37
2022-10-09T12:20:09.301Z,3.37
2022-10-09T12:22:41.670Z,3.55
2022-10-09T12:25:32.755Z,3.72
2022-10-09T12:28:00.694Z,3.50
2022-10-09T12:30:35.739Z,4.32
2022-10-09T12:33:21.942Z,4.32
2022-10-09T12:36:00.775Z,3.75
2022-10-09T12:38:31.896Z,4.43
2022-10-09T12:41:04.822Z,4.40
2022-10-09T12:43:33.972Z,5.05
2022-10-09T12:46:03.202Z,5.28
2022-10-09T12:48:37.902Z,5.57
2022-10-09T12:51:21.920Z,6.05
2022-10-09T12:53:52.103Z,5.82
2022-10-09T12:56:23.649Z,5.97
2022-10-09T12:58:54.748Z,6.15
2022-10-09T13:01:25.437Z,5.60
2022-10-09T13:03:59.156Z,5.37
2022-10-09T13:06:28.901Z,6.03
2022-10-09T13:09:02.389Z,5.93
2022-10-09T13:11:41.928Z,6.93
2022-10-09T13:14:27.454Z,5.90
2022-10-09T13:16:56.538Z,5.82
2022-10-09T13:19:28.951Z,5.82
2022-10-09T13:22:14.393Z,5.97
2022-10-09T13:24:43.076Z,6.32
2022-10-09T13:27:12.081Z,6.93
2022-10-09T13:29:39.560Z,5.75
2022-10-09T13:32:12.591Z,6.50
2022-10-09T13:34:42.358Z,6.05
2022-10-09T13:37:14.929Z,6.40
2022-10-09T13:39:44.007Z,6.55
2022-10-09T13:42:13.966Z,7.45
2022-10-09T13:44:43.732Z,6.62
2022-10-09T13:47:13.605Z,6.62
2022-10-09T13:49:41.082Z,6.05
2022-10-09T13:52:10.401Z,6.00
2022-10-09T13:54:40.214Z,6.30
2022-10-09T13:57:09.663Z,6.43
2022-10-09T13:59:38.615Z,6.20
2022-10-09T14:02:06.554Z,6.35
2022-10-09T14:04:36.222Z,6.50
2022-10-09T14:07:04.568Z,6.37
2022-10-09T14:09:35.370Z,5.87
2022-10-09T14:12:03.790Z,6.40
2022-10-09T14:14:31.844Z,6.68
2022-10-09T14:17:00.133Z,6.28
2022-10-09T14:19:28.229Z,6.10
2022-10-09T14:21:56.696Z,6.00
2022-10-09T14:24:27.241Z,6.35
2022-10-09T14:26:55.303Z,6.78
2022-10-09T14:29:26.072Z,6.05
2022-10-09T14:31:53.992Z,6.10
2022-10-09T14:34:22.176Z,6.45
2022-10-09T14:36:52.496Z,6.37
2022-10-09T14:39:20.360Z,6.75
2022-10-09T14:41:49.274Z,7.00
2022-10-09T14:44:18.219Z,6.95
2022-10-09T14:46:47.887Z,6.95
2022-10-09T14:49:15.826Z,6.90
2022-10-09T14:51:44.690Z,6.57
2022-10-09T14:54:12.840Z,7.00
2022-10-09T14:56:42.266Z,6.60
2022-10-09T14:59:11.307Z,5.85
2022-10-09T15:01:39.263Z,6.90
2022-10-09T15:04:07.452Z,6.90
2022-10-09T15:06:36.163Z,6.10
2022-10-09T15:09:06.206Z,7.20
2022-10-09T15:11:35.911Z,7.00
2022-10-09T15:14:05.657Z,7.22
2022-10-09T15:16:34.605Z,7.40
2022-10-09T15:19:03.000Z,6.93
2022-10-09T15:21:34.519Z,7.40
2022-10-09T15:24:04.379Z,16.55
2022-10-09T15:26:33.641Z,7.75
2022-10-09T15:29:05.125Z,7.60
2022-10-09T15:31:43.959Z,8.68
2022-10-09T15:34:17.143Z,7.80
2022-10-09T15:36:46.337Z,7.70
2022-10-09T15:39:14.302Z,9.18
2022-10-09T15:41:43.295Z,9.43
2022-10-09T15:44:19.486Z,9.57
2022-10-09T15:46:48.912Z,9.27
2022-10-09T15:49:18.316Z,16.00
2022-10-09T15:51:49.562Z,10.23
2022-10-09T15:54:18.019Z,8.73
2022-10-09T15:56:47.784Z,7.93
2022-10-09T15:59:17.153Z,9.40
2022-10-09T16:01:46.279Z,9.63
2022-10-09T16:04:16.000Z,9.40
2022-10-09T16:06:44.674Z,9.98
2022-10-09T16:09:12.799Z,9.77
2022-10-09T16:11:42.253Z,9.60
2022-10-09T16:14:10.414Z,9.88
2022-10-09T16:16:37.902Z,10.20
2022-10-09T16:19:10.888Z,9.20
2022-10-09T16:21:38.917Z,9.35
2022-10-09T16:24:08.475Z,8.98
2022-10-09T16:26:37.355Z,9.35
2022-10-09T16:29:05.302Z,11.40
2022-10-09T16:31:37.403Z,12.73
2022-10-09T16:34:08.304Z,12.63
2022-10-09T16:36:39.741Z,12.65
2022-10-09T16:39:10.836Z,15.55
2022-10-09T16:41:41.969Z,13.02
2022-10-09T16:44:14.556Z,11.88
2022-10-09T16:46:42.610Z,12.63
2022-10-09T16:49:20.064Z,13.00
2022-10-09T16:51:51.256Z,12.48
2022-10-09T16:54:20.694Z,10.90
2022-10-09T16:56:48.880Z,9.95
2022-10-09T16:59:17.144Z,10.25
2022-10-09T17:01:48.020Z,10.57
2022-10-09T17:04:16.922Z,11.82
2022-10-09T17:06:46.590Z,11.88
2022-10-09T17:09:15.139Z,11.73
2022-10-09T17:11:44.180Z,12.10
2022-10-09T17:14:13.485Z,11.50
2022-10-09T17:16:42.878Z,11.10
2022-10-09T17:19:10.487Z,11.82
2022-10-09T17:21:39.526Z,10.90
2022-10-09T17:24:07.811Z,10.10
2022-10-09T17:26:35.676Z,9.43
2022-10-09T17:29:04.747Z,9.48
2022-10-09T17:31:33.031Z,8.60
2022-10-09T17:34:02.818Z,8.98
2022-10-09T17:36:37.661Z,9.48
2022-10-09T17:39:08.822Z,8.50
2022-10-09T17:41:37.623Z,8.75
2022-10-09T17:44:06.686Z,9.15
2022-10-09T17:46:34.908Z,9.63
2022-10-09T17:49:04.226Z,9.23
2022-10-09T17:51:39.014Z,9.35
2022-10-09T17:54:12.445Z,9.20
2022-10-09T17:56:41.248Z,9.00
2022-10-09T17:59:10.420Z,9.45
2022-10-09T18:01:40.068Z,9.30
2022-10-09T18:04:20.327Z,9.15
2022-10-09T18:06:51.455Z,9.43
2022-10-09T18:09:23.174Z,9.63
2022-10-09T18:11:51.453Z,10.48
2022-10-09T18:14:20.528Z,10.57
2022-10-09T18:16:56.185Z,9.38
2022-10-09T18:19:24.282Z,7.62
2022-10-09T18:21:52.063Z,7.55
2022-10-09T18:24:19.772Z,7.03
2022-10-09T18:26:47.652Z,8.05
2022-10-09T18:29:15.382Z,8.07
2022-10-09T18:31:44.446Z,7.57
2022-10-09T18:34:12.926Z,8.10
2022-10-09T18:36:41.719Z,8.48
2022-10-09T18:39:13.395Z,7.90
2022-10-09T18:41:43.358Z,7.75
2022-10-09T18:44:18.745Z,7.57
2022-10-09T18:46:51.307Z,7.32
2022-10-09T18:49:22.305Z,7.35
2022-10-09T18:51:52.276Z,6.35
2022-10-09T18:54:22.835Z,7.18
2022-10-09T18:56:53.551Z,6.70
2022-10-09T18:59:22.734Z,6.20
2022-10-09T19:01:51.998Z,6.15
2022-10-09T19:04:20.914Z,6.60
2022-10-09T19:06:49.826Z,6.43
2022-10-09T19:09:21.371Z,6.47
2022-10-09T19:11:50.146Z,5.28
2022-10-09T19:14:19.954Z,5.62
2022-10-09T19:16:49.667Z,5.80
2022-10-09T19:19:24.687Z,5.28
2022-10-09T19:21:53.613Z,5.95
2022-10-09T19:24:22.179Z,6.12
2022-10-09T19:26:51.318Z,5.50
2022-10-09T19:29:19.948Z,6.07
2022-10-09T19:31:48.175Z,5.60
2022-10-09T19:34:18.608Z,5.87
2022-10-09T19:36:50.098Z,5.00
2022-10-09T19:39:19.110Z,5.25
2022-10-09T19:41:51.308Z,5.70
2022-10-09T19:44:24.245Z,5.35
2022-10-09T19:46:53.383Z,5.43
2022-10-09T19:49:21.287Z,5.28
2022-10-09T19:51:50.714Z,5.12
2022-10-09T19:54:20.884Z,6.03
2022-10-09T19:59:18.135Z,6.90
2022-10-09T20:01:46.425Z,6.53
2022-10-09T20:04:16.448Z,7.50
2022-10-09T20:06:44.813Z,6.57
2022-10-09T20:09:15.765Z,5.30
2022-10-09T20:11:45.629Z,5.30
2022-10-09T20:14:14.017Z,4.68
2022-10-09T20:16:42.794Z,5.78
2022-10-09T20:19:14.141Z,5.30
2022-10-09T20:21:44.414Z,5.05
2022-10-09T20:24:16.320Z,5.05
2022-10-09T20:26:46.526Z,4.93
2022-10-09T20:29:22.302Z,4.78
2022-10-09T20:31:51.592Z,5.00
2022-10-09T20:34:27.463Z,5.87
2022-10-09T20:36:58.552Z,5.65
2022-10-09T20:39:33.682Z,5.22
2022-10-09T20:42:04.898Z,4.68
2022-10-09T20:44:40.895Z,4.62
2022-10-09T20:47:14.398Z,4.75
2022-10-09T20:49:49.374Z,4.80
2022-10-09T20:52:18.749Z,4.68
2022-10-09T20:54:48.708Z,4.75
2022-10-09T20:57:20.025Z,4.70
2022-10-09T20:59:51.610Z,4.27
2022-10-09T21:02:20.716Z,4.28
2022-10-09T21:04:50.435Z,3.80
2022-10-09T21:07:18.299Z,4.00
2022-10-09T21:09:47.416Z,4.00
2022-10-09T21:12:16.554Z,4.20
2022-10-09T21:14:44.704Z,3.90
2022-10-09T21:17:12.754Z,4.70
2022-10-09T21:19:41.474Z,3.97
2022-10-09T21:22:10.776Z,4.68
2022-10-09T21:24:38.255Z,3.70
2022-10-09T21:27:06.707Z,3.50
2022-10-09T21:29:34.314Z,3.75
2022-10-09T21:32:02.838Z,3.30
2022-10-09T21:34:31.858Z,3.00
2022-10-09T21:39:48.803Z,2.25
2022-10-09T21:42:16.399Z,2.75
2022-10-09T21:44:45.243Z,2.78
2022-10-09T21:47:18.826Z,2.92
2022-10-09T21:49:47.092Z,2.87
2022-10-09T21:52:14.848Z,2.87
2022-10-09T21:54:42.460Z,2.72
2022-10-09T21:57:10.001Z,2.72
2022-10-09T21:59:38.783Z,2.42
2022-10-09T22:02:07.716Z,2.60
2022-10-09T22:07:10.210Z,2.40
2022-10-09T22:09:39.829Z,2.50
2022-10-09T22:12:11.618Z,2.30
2022-10-09T22:14:45.784Z,2.67
2022-10-09T22:17:16.962Z,2.97
2022-10-09T22:19:48.423Z,2.72
2022-10-09T22:22:17.387Z,2.78
2022-10-09T22:24:48.630Z,2.53
2022-10-09T22:27:20.670Z,2.67
2022-10-09T22:29:49.966Z,2.58
2022-10-09T22:32:26.029Z,2.50
2022-10-09T22:34:58.984Z,2.70
2022-10-09T22:37:29.038Z,2.92
2022-10-09T22:39:59.416Z,2.78
2022-10-09T22:42:28.686Z,2.78
2022-10-09T22:44:58.978Z,2.90
2022-10-09T22:47:31.230Z,2.47
2022-10-09T22:50:02.370Z,2.45
2022-10-09T22:52:33.536Z,3.35
2022-10-09T22:55:05.025Z,2.10
2022-10-09T22:57:40.921Z,1.90
2022-10-09T23:00:18.049Z,2.15
2022-10-09T23:02:50.621Z,2.33
2022-10-09T23:05:24.545Z,2.42
2022-10-09T23:08:00.216Z,2.78
2022-10-09T23:10:30.715Z,2.80
2022-10-09T23:13:03.454Z,2.70
2022-10-09T23:15:35.908Z,2.50
2022-10-09T23:18:06.708Z,2.50
2022-10-09T23:20:39.126Z,2.72
2022-10-09T23:23:10.425Z,2.25
2022-10-09T23:25:41.748Z,2.42
2022-10-09T23:28:10.851Z,3.00
2022-10-09T23:30:39.411Z,2.90
2022-10-09T23:33:11.306Z,2.70
2022-10-09T23:35:43.131Z,2.20
2022-10-09T23:40:43.798Z,2.72
2022-10-09T23:43:16.211Z,2.47
2022-10-09T23:45:47.728Z,2.08
2022-10-09T23:48:17.631Z,3.50
2022-10-09T23:50:50.292Z,1.90
2022-10-09T23:53:21.660Z,2.10
2022-10-09T23:55:51.321Z,2.20
2022-10-09T23:58:23.923Z,2.17
